Terminal Aerodrome Forecast
Issued by NWS Wilmington, OH

Home | Current Version | Previous Version | Text Only | Print | Product List | Glossary On
Versions: 1 2 3 4 5 6 7 8 9 10 11 12 13 14 15 16
000
FTUS41 KILN 192327
TAFCMH
TAF
KCMH 192327Z 2000/2024 VRB03KT P6SM VCSH BKN060
     FM200200 VRB03KT P6SM BKN100
     FM201000 VRB03KT 4SM BR BKN015
     FM201400 VRB03KT P6SM BKN015
     FM201700 24005KT P6SM BKN050=

USA.gov is the U.S. government's official web portal to all federal, state and local government web resources and services.